sensor_id;sensor_type;location;lat;lon;timestamp;P1;durP1;ratioP1;P2;durP2;ratioP2
7971;SDS011;4031;49.758;6.120;2023-04-02T00:07:54;2.30;;;1.67;;
7971;SDS011;4031;49.758;6.120;2023-04-02T00:15:48;2.60;;;2.00;;
7971;SDS011;4031;49.758;6.120;2023-04-02T00:18:18;2.40;;;1.80;;
7971;SDS011;4031;49.758;6.120;2023-04-02T00:20:48;1.80;;;1.47;;
7971;SDS011;4031;49.758;6.120;2023-04-02T00:23:43;2.20;;;2.00;;
7971;SDS011;4031;49.758;6.120;2023-04-02T00:26:23;1.93;;;1.67;;
7971;SDS011;4031;49.758;6.120;2023-04-02T00:29:06;1.80;;;1.70;;
7971;SDS011;4031;49.758;6.120;2023-04-02T00:31:38;2.80;;;1.90;;
7971;SDS011;4031;49.758;6.120;2023-04-02T00:34:08;2.50;;;1.60;;
7971;SDS011;4031;49.758;6.120;2023-04-02T00:36:41;1.77;;;1.47;;
7971;SDS011;4031;49.758;6.120;2023-04-02T00:39:09;1.60;;;1.50;;
7971;SDS011;4031;49.758;6.120;2023-04-02T00:41:45;2.13;;;1.40;;
7971;SDS011;4031;49.758;6.120;2023-04-02T00:44:14;2.13;;;1.53;;
7971;SDS011;4031;49.758;6.120;2023-04-02T00:46:45;1.93;;;1.80;;
7971;SDS011;4031;49.758;6.120;2023-04-02T00:49:18;1.60;;;1.50;;
7971;SDS011;4031;49.758;6.120;2023-04-02T00:51:52;1.93;;;1.83;;
7971;SDS011;4031;49.758;6.120;2023-04-02T00:54:24;1.67;;;1.57;;
7971;SDS011;4031;49.758;6.120;2023-04-02T00:56:56;2.10;;;1.70;;
7971;SDS011;4031;49.758;6.120;2023-04-02T00:59:30;1.43;;;1.33;;
7971;SDS011;4031;49.758;6.120;2023-04-02T01:04:41;1.63;;;1.53;;
7971;SDS011;4031;49.758;6.120;2023-04-02T01:07:16;3.20;;;2.00;;
7971;SDS011;4031;49.758;6.120;2023-04-02T01:10:38;1.20;;;1.10;;
7971;SDS011;4031;49.758;6.120;2023-04-02T01:13:08;4.67;;;1.37;;
7971;SDS011;4031;49.758;6.120;2023-04-02T01:21:58;1.10;;;1.00;;
7971;SDS011;4031;49.758;6.120;2023-04-02T01:24:38;1.23;;;1.13;;
7971;SDS011;4031;49.758;6.120;2023-04-02T01:27:04;1.40;;;1.30;;
7971;SDS011;4031;49.758;6.120;2023-04-02T01:29:48;1.00;;;0.90;;
7971;SDS011;4031;49.758;6.120;2023-04-02T01:32:20;1.30;;;1.20;;
7971;SDS011;4031;49.758;6.120;2023-04-02T01:34:50;1.43;;;1.10;;
7971;SDS011;4031;49.758;6.120;2023-04-02T01:40:27;1.03;;;0.97;;
7971;SDS011;4031;49.758;6.120;2023-04-02T01:43:10;1.30;;;1.20;;
7971;SDS011;4031;49.758;6.120;2023-04-02T01:45:38;1.30;;;1.20;;
7971;SDS011;4031;49.758;6.120;2023-04-02T01:48:07;1.20;;;1.10;;
7971;SDS011;4031;49.758;6.120;2023-04-02T01:50:41;1.37;;;1.27;;
7971;SDS011;4031;49.758;6.120;2023-04-02T01:53:10;2.93;;;1.27;;
7971;SDS011;4031;49.758;6.120;2023-04-02T01:58:13;1.50;;;1.40;;
7971;SDS011;4031;49.758;6.120;2023-04-02T02:00:59;1.60;;;1.50;;
7971;SDS011;4031;49.758;6.120;2023-04-02T02:03:27;2.23;;;1.80;;
7971;SDS011;4031;49.758;6.120;2023-04-02T02:05:54;1.47;;;1.37;;
7971;SDS011;4031;49.758;6.120;2023-04-02T02:11:01;2.30;;;1.40;;
7971;SDS011;4031;49.758;6.120;2023-04-02T02:13:28;1.63;;;1.53;;
7971;SDS011;4031;49.758;6.120;2023-04-02T02:15:57;1.40;;;1.17;;
7971;SDS011;4031;49.758;6.120;2023-04-02T02:18:24;1.37;;;1.27;;
7971;SDS011;4031;49.758;6.120;2023-04-02T02:20:51;1.77;;;1.30;;
7971;SDS011;4031;49.758;6.120;2023-04-02T02:23:19;1.40;;;1.20;;
7971;SDS011;4031;49.758;6.120;2023-04-02T02:25:45;1.73;;;1.60;;
7971;SDS011;4031;49.758;6.120;2023-04-02T02:28:28;1.50;;;1.40;;
7971;SDS011;4031;49.758;6.120;2023-04-02T02:31:15;1.50;;;1.40;;
7971;SDS011;4031;49.758;6.120;2023-04-02T02:33:52;3.43;;;1.73;;
7971;SDS011;4031;49.758;6.120;2023-04-02T02:36:36;1.70;;;1.50;;
7971;SDS011;4031;49.758;6.120;2023-04-02T02:39:21;1.93;;;1.73;;
7971;SDS011;4031;49.758;6.120;2023-04-02T02:41:59;1.47;;;1.37;;
7971;SDS011;4031;49.758;6.120;2023-04-02T02:44:35;2.07;;;1.80;;
7971;SDS011;4031;49.758;6.120;2023-04-02T02:47:09;1.50;;;1.40;;
7971;SDS011;4031;49.758;6.120;2023-04-02T02:49:48;2.10;;;1.90;;
7971;SDS011;4031;49.758;6.120;2023-04-02T02:52:19;2.50;;;1.77;;
7971;SDS011;4031;49.758;6.120;2023-04-02T02:57:36;2.23;;;2.03;;
7971;SDS011;4031;49.758;6.120;2023-04-02T03:00:07;1.63;;;1.50;;
7971;SDS011;4031;49.758;6.120;2023-04-02T03:02:39;3.90;;;2.03;;
7971;SDS011;4031;49.758;6.120;2023-04-02T03:05:07;2.10;;;1.67;;
7971;SDS011;4031;49.758;6.120;2023-04-02T03:07:34;3.27;;;2.10;;
7971;SDS011;4031;49.758;6.120;2023-04-02T03:10:08;3.87;;;1.70;;
7971;SDS011;4031;49.758;6.120;2023-04-02T03:18:54;2.93;;;2.37;;
7971;SDS011;4031;49.758;6.120;2023-04-02T03:21:51;2.60;;;2.40;;
7971;SDS011;4031;49.758;6.120;2023-04-02T03:27:19;3.43;;;2.80;;
7971;SDS011;4031;49.758;6.120;2023-04-02T03:30:17;2.90;;;2.60;;
7971;SDS011;4031;49.758;6.120;2023-04-02T03:39:00;3.80;;;3.07;;
7971;SDS011;4031;49.758;6.120;2023-04-02T03:41:49;4.10;;;3.17;;
7971;SDS011;4031;49.758;6.120;2023-04-02T03:44:25;3.70;;;2.80;;
7971;SDS011;4031;49.758;6.120;2023-04-02T03:47:18;3.20;;;2.77;;
7971;SDS011;4031;49.758;6.120;2023-04-02T03:49:56;2.87;;;2.50;;
7971;SDS011;4031;49.758;6.120;2023-04-02T03:52:37;2.80;;;2.00;;
7971;SDS011;4031;49.758;6.120;2023-04-02T03:55:10;1.90;;;1.73;;
7971;SDS011;4031;49.758;6.120;2023-04-02T04:00:35;4.43;;;1.80;;
7971;SDS011;4031;49.758;6.120;2023-04-02T04:08:26;1.70;;;1.60;;
7971;SDS011;4031;49.758;6.120;2023-04-02T04:11:06;2.33;;;2.13;;
7971;SDS011;4031;49.758;6.120;2023-04-02T04:19:41;1.73;;;1.60;;
7971;SDS011;4031;49.758;6.120;2023-04-02T04:22:18;2.67;;;1.70;;
7971;SDS011;4031;49.758;6.120;2023-04-02T04:24:56;3.73;;;2.17;;
7971;SDS011;4031;49.758;6.120;2023-04-02T04:27:27;2.50;;;2.23;;
7971;SDS011;4031;49.758;6.120;2023-04-02T04:30:12;2.33;;;2.00;;
7971;SDS011;4031;49.758;6.120;2023-04-02T04:32:47;3.17;;;2.50;;
7971;SDS011;4031;49.758;6.120;2023-04-02T04:37:55;2.60;;;2.33;;
7971;SDS011;4031;49.758;6.120;2023-04-02T04:40:32;1.63;;;1.40;;
7971;SDS011;4031;49.758;6.120;2023-04-02T04:43:06;2.37;;;2.17;;
7971;SDS011;4031;49.758;6.120;2023-04-02T04:45:55;2.10;;;1.70;;
7971;SDS011;4031;49.758;6.120;2023-04-02T04:49:27;2.20;;;2.00;;
7971;SDS011;4031;49.758;6.120;2023-04-02T04:52:07;1.43;;;1.33;;
7971;SDS011;4031;49.758;6.120;2023-04-02T04:54:43;2.30;;;2.10;;
7971;SDS011;4031;49.758;6.120;2023-04-02T04:57:19;2.37;;;2.00;;
7971;SDS011;4031;49.758;6.120;2023-04-02T05:00:03;1.77;;;1.60;;
7971;SDS011;4031;49.758;6.120;2023-04-02T05:03:01;1.70;;;1.60;;
7971;SDS011;4031;49.758;6.120;2023-04-02T05:05:41;2.47;;;2.13;;
7971;SDS011;4031;49.758;6.120;2023-04-02T05:08:12;1.63;;;1.50;;
7971;SDS011;4031;49.758;6.120;2023-04-02T05:10:48;3.07;;;1.90;;
7971;SDS011;4031;49.758;6.120;2023-04-02T05:16:08;1.47;;;1.10;;
7971;SDS011;4031;49.758;6.120;2023-04-02T05:18:52;1.80;;;1.47;;
7971;SDS011;4031;49.758;6.120;2023-04-02T05:21:37;2.30;;;1.73;;
7971;SDS011;4031;49.758;6.120;2023-04-02T05:24:24;1.93;;;1.73;;
7971;SDS011;4031;49.758;6.120;2023-04-02T05:26:53;1.43;;;1.33;;
7971;SDS011;4031;49.758;6.120;2023-04-02T05:29:32;2.07;;;1.67;;
7971;SDS011;4031;49.758;6.120;2023-04-02T05:34:55;2.90;;;2.50;;
7971;SDS011;4031;49.758;6.120;2023-04-02T05:37:22;2.10;;;1.97;;
7971;SDS011;4031;49.758;6.120;2023-04-02T05:39:57;2.90;;;2.20;;
7971;SDS011;4031;49.758;6.120;2023-04-02T05:42:37;2.83;;;2.37;;
7971;SDS011;4031;49.758;6.120;2023-04-02T05:47:56;4.67;;;2.30;;
7971;SDS011;4031;49.758;6.120;2023-04-02T05:50:31;2.27;;;1.87;;
7971;SDS011;4031;49.758;6.120;2023-04-02T05:53:03;3.07;;;2.27;;
7971;SDS011;4031;49.758;6.120;2023-04-02T05:55:37;3.60;;;2.87;;
7971;SDS011;4031;49.758;6.120;2023-04-02T05:58:15;2.47;;;1.73;;
7971;SDS011;4031;49.758;6.120;2023-04-02T06:00:53;4.83;;;2.70;;
7971;SDS011;4031;49.758;6.120;2023-04-02T06:03:45;4.10;;;2.60;;
7971;SDS011;4031;49.758;6.120;2023-04-02T06:07:08;2.70;;;1.77;;
7971;SDS011;4031;49.758;6.120;2023-04-02T06:09:44;3.20;;;2.90;;
7971;SDS011;4031;49.758;6.120;2023-04-02T06:15:24;3.13;;;2.07;;
7971;SDS011;4031;49.758;6.120;2023-04-02T06:17:51;2.93;;;2.33;;
7971;SDS011;4031;49.758;6.120;2023-04-02T06:20:38;3.67;;;3.23;;
7971;SDS011;4031;49.758;6.120;2023-04-02T06:23:10;3.43;;;3.10;;
7971;SDS011;4031;49.758;6.120;2023-04-02T06:28:45;2.30;;;1.97;;
7971;SDS011;4031;49.758;6.120;2023-04-02T06:34:18;2.30;;;2.03;;
7971;SDS011;4031;49.758;6.120;2023-04-02T06:36:47;4.10;;;3.07;;
7971;SDS011;4031;49.758;6.120;2023-04-02T06:39:19;3.60;;;2.47;;
7971;SDS011;4031;49.758;6.120;2023-04-02T06:42:02;5.00;;;3.50;;
7971;SDS011;4031;49.758;6.120;2023-04-02T06:44:37;3.40;;;2.57;;
7971;SDS011;4031;49.758;6.120;2023-04-02T06:49:57;4.17;;;3.77;;
7971;SDS011;4031;49.758;6.120;2023-04-02T06:52:52;5.67;;;3.90;;
7971;SDS011;4031;49.758;6.120;2023-04-02T06:55:26;4.37;;;3.83;;
7971;SDS011;4031;49.758;6.120;2023-04-02T06:58:11;3.97;;;3.57;;
7971;SDS011;4031;49.758;6.120;2023-04-02T07:00:40;4.23;;;2.90;;
7971;SDS011;4031;49.758;6.120;2023-04-02T07:03:14;2.50;;;2.30;;
7971;SDS011;4031;49.758;6.120;2023-04-02T07:05:48;2.43;;;2.23;;
7971;SDS011;4031;49.758;6.120;2023-04-02T07:08:14;4.10;;;3.27;;
7971;SDS011;4031;49.758;6.120;2023-04-02T07:10:40;6.33;;;3.90;;
7971;SDS011;4031;49.758;6.120;2023-04-02T07:13:06;4.40;;;3.30;;
7971;SDS011;4031;49.758;6.120;2023-04-02T07:15:36;4.27;;;3.10;;
7971;SDS011;4031;49.758;6.120;2023-04-02T07:18:02;4.40;;;3.67;;
7971;SDS011;4031;49.758;6.120;2023-04-02T07:20:30;5.33;;;2.70;;
7971;SDS011;4031;49.758;6.120;2023-04-02T07:23:01;3.30;;;2.90;;
7971;SDS011;4031;49.758;6.120;2023-04-02T07:25:27;3.87;;;2.90;;
7971;SDS011;4031;49.758;6.120;2023-04-02T07:27:53;5.80;;;3.80;;
7971;SDS011;4031;49.758;6.120;2023-04-02T07:30:20;5.90;;;3.50;;
7971;SDS011;4031;49.758;6.120;2023-04-02T07:32:46;2.47;;;2.27;;
7971;SDS011;4031;49.758;6.120;2023-04-02T07:35:12;4.30;;;3.27;;
7971;SDS011;4031;49.758;6.120;2023-04-02T07:37:38;3.73;;;3.10;;
7971;SDS011;4031;49.758;6.120;2023-04-02T07:40:05;3.43;;;2.50;;
7971;SDS011;4031;49.758;6.120;2023-04-02T07:42:45;5.23;;;3.10;;
7971;SDS011;4031;49.758;6.120;2023-04-02T07:45:12;3.63;;;2.27;;
7971;SDS011;4031;49.758;6.120;2023-04-02T07:47:38;4.37;;;3.20;;
7971;SDS011;4031;49.758;6.120;2023-04-02T07:50:04;4.07;;;3.00;;
7971;SDS011;4031;49.758;6.120;2023-04-02T07:52:32;3.87;;;2.80;;
7971;SDS011;4031;49.758;6.120;2023-04-02T07:54:59;2.10;;;1.83;;
7971;SDS011;4031;49.758;6.120;2023-04-02T07:57:25;3.70;;;2.90;;
7971;SDS011;4031;49.758;6.120;2023-04-02T07:59:51;4.30;;;2.60;;
7971;SDS011;4031;49.758;6.120;2023-04-02T08:02:20;3.03;;;2.77;;
7971;SDS011;4031;49.758;6.120;2023-04-02T08:04:47;3.37;;;2.23;;
7971;SDS011;4031;49.758;6.120;2023-04-02T08:07:16;5.33;;;2.70;;
7971;SDS011;4031;49.758;6.120;2023-04-02T08:09:43;3.30;;;2.17;;
7971;SDS011;4031;49.758;6.120;2023-04-02T08:12:11;3.07;;;2.53;;
7971;SDS011;4031;49.758;6.120;2023-04-02T08:14:38;3.80;;;2.47;;
7971;SDS011;4031;49.758;6.120;2023-04-02T08:17:04;3.20;;;2.00;;
7971;SDS011;4031;49.758;6.120;2023-04-02T08:19:30;2.60;;;2.20;;
7971;SDS011;4031;49.758;6.120;2023-04-02T08:21:57;3.67;;;2.30;;
7971;SDS011;4031;49.758;6.120;2023-04-02T08:24:23;1.87;;;1.73;;
7971;SDS011;4031;49.758;6.120;2023-04-02T08:26:49;2.17;;;1.97;;
7971;SDS011;4031;49.758;6.120;2023-04-02T08:29:18;3.60;;;1.80;;
7971;SDS011;4031;49.758;6.120;2023-04-02T08:31:45;2.70;;;1.67;;
7971;SDS011;4031;49.758;6.120;2023-04-02T08:34:11;2.40;;;1.60;;
7971;SDS011;4031;49.758;6.120;2023-04-02T08:36:37;2.50;;;1.90;;
7971;SDS011;4031;49.758;6.120;2023-04-02T08:39:06;2.20;;;2.00;;
7971;SDS011;4031;49.758;6.120;2023-04-02T08:41:36;2.27;;;1.87;;
7971;SDS011;4031;49.758;6.120;2023-04-02T08:47:01;2.50;;;1.67;;
7971;SDS011;4031;49.758;6.120;2023-04-02T08:49:31;2.10;;;1.57;;
7971;SDS011;4031;49.758;6.120;2023-04-02T08:52:05;1.60;;;1.50;;
7971;SDS011;4031;49.758;6.120;2023-04-02T08:54:39;1.57;;;1.47;;
7971;SDS011;4031;49.758;6.120;2023-04-02T09:02:46;1.37;;;1.27;;
7971;SDS011;4031;49.758;6.120;2023-04-02T09:05:27;1.20;;;1.10;;
7971;SDS011;4031;49.758;6.120;2023-04-02T09:07:57;2.37;;;1.80;;
7971;SDS011;4031;49.758;6.120;2023-04-02T09:10:41;1.63;;;1.30;;
7971;SDS011;4031;49.758;6.120;2023-04-02T09:13:21;1.50;;;1.40;;
7971;SDS011;4031;49.758;6.120;2023-04-02T09:18:59;1.50;;;1.40;;
7971;SDS011;4031;49.758;6.120;2023-04-02T09:21:30;1.23;;;1.13;;
7971;SDS011;4031;49.758;6.120;2023-04-02T09:24:02;1.63;;;1.53;;
7971;SDS011;4031;49.758;6.120;2023-04-02T09:26:30;1.40;;;1.30;;
7971;SDS011;4031;49.758;6.120;2023-04-02T09:31:39;1.60;;;1.50;;
7971;SDS011;4031;49.758;6.120;2023-04-02T09:34:28;1.13;;;0.97;;
7971;SDS011;4031;49.758;6.120;2023-04-02T09:37:05;1.50;;;1.30;;
7971;SDS011;4031;49.758;6.120;2023-04-02T09:39:49;0.93;;;0.93;;
7971;SDS011;4031;49.758;6.120;2023-04-02T09:42:32;1.67;;;1.47;;
7971;SDS011;4031;49.758;6.120;2023-04-02T09:47:58;1.33;;;1.23;;
7971;SDS011;4031;49.758;6.120;2023-04-02T09:50:25;3.67;;;1.37;;
7971;SDS011;4031;49.758;6.120;2023-04-02T09:52:56;0.90;;;0.90;;
7971;SDS011;4031;49.758;6.120;2023-04-02T09:58:05;1.57;;;1.47;;
7971;SDS011;4031;49.758;6.120;2023-04-02T10:00:38;1.30;;;1.20;;
7971;SDS011;4031;49.758;6.120;2023-04-02T10:05:42;1.37;;;1.27;;
7971;SDS011;4031;49.758;6.120;2023-04-02T10:10:48;1.00;;;1.00;;
7971;SDS011;4031;49.758;6.120;2023-04-02T10:13:27;1.40;;;1.30;;
7971;SDS011;4031;49.758;6.120;2023-04-02T10:21:17;1.20;;;1.10;;
7971;SDS011;4031;49.758;6.120;2023-04-02T10:23:49;0.90;;;0.90;;
7971;SDS011;4031;49.758;6.120;2023-04-02T10:32:10;0.60;;;0.60;;
7971;SDS011;4031;49.758;6.120;2023-04-02T10:34:57;1.17;;;1.07;;
7971;SDS011;4031;49.758;6.120;2023-04-02T10:40:34;0.90;;;0.80;;
7971;SDS011;4031;49.758;6.120;2023-04-02T10:46:20;1.17;;;1.10;;
7971;SDS011;4031;49.758;6.120;2023-04-02T10:49:00;0.80;;;0.80;;
7971;SDS011;4031;49.758;6.120;2023-04-02T10:51:32;1.13;;;1.03;;
7971;SDS011;4031;49.758;6.120;2023-04-02T11:02:37;1.43;;;0.87;;
7971;SDS011;4031;49.758;6.120;2023-04-02T11:10:50;0.70;;;0.70;;
7971;SDS011;4031;49.758;6.120;2023-04-02T11:15:56;0.87;;;0.87;;
7971;SDS011;4031;49.758;6.120;2023-04-02T11:18:29;0.77;;;0.77;;
7971;SDS011;4031;49.758;6.120;2023-04-02T11:23:32;0.73;;;0.60;;
7971;SDS011;4031;49.758;6.120;2023-04-02T11:26:31;1.00;;;0.90;;
7971;SDS011;4031;49.758;6.120;2023-04-02T11:29:24;0.90;;;0.70;;
7971;SDS011;4031;49.758;6.120;2023-04-02T11:32:11;0.70;;;0.70;;
7971;SDS011;4031;49.758;6.120;2023-04-02T11:50:27;1.00;;;0.90;;
7971;SDS011;4031;49.758;6.120;2023-04-02T11:53:01;0.67;;;0.67;;
7971;SDS011;4031;49.758;6.120;2023-04-02T11:55:30;0.70;;;0.70;;
7971;SDS011;4031;49.758;6.120;2023-04-02T12:08:19;0.83;;;0.83;;
7971;SDS011;4031;49.758;6.120;2023-04-02T12:10:57;1.10;;;1.03;;
7971;SDS011;4031;49.758;6.120;2023-04-02T12:16:06;1.00;;;1.00;;
7971;SDS011;4031;49.758;6.120;2023-04-02T12:18:47;1.00;;;0.90;;
7971;SDS011;4031;49.758;6.120;2023-04-02T12:21:20;1.30;;;1.20;;
7971;SDS011;4031;49.758;6.120;2023-04-02T12:23:50;1.10;;;1.00;;
7971;SDS011;4031;49.758;6.120;2023-04-02T12:31:49;1.03;;;1.00;;
7971;SDS011;4031;49.758;6.120;2023-04-02T12:34:15;0.50;;;0.50;;
7971;SDS011;4031;49.758;6.120;2023-04-02T12:36:54;1.03;;;0.73;;
7971;SDS011;4031;49.758;6.120;2023-04-02T12:39:29;1.20;;;1.10;;
7971;SDS011;4031;49.758;6.120;2023-04-02T12:41:56;1.13;;;1.03;;
7971;SDS011;4031;49.758;6.120;2023-04-02T12:44:23;1.30;;;1.20;;
7971;SDS011;4031;49.758;6.120;2023-04-02T12:46:52;1.13;;;1.03;;
7971;SDS011;4031;49.758;6.120;2023-04-02T12:51:49;1.20;;;1.10;;
7971;SDS011;4031;49.758;6.120;2023-04-02T12:54:16;2.13;;;1.97;;
7971;SDS011;4031;49.758;6.120;2023-04-02T12:56:44;1.03;;;1.00;;
7971;SDS011;4031;49.758;6.120;2023-04-02T13:01:56;1.43;;;1.33;;
7971;SDS011;4031;49.758;6.120;2023-04-02T13:04:25;1.23;;;1.13;;
7971;SDS011;4031;49.758;6.120;2023-04-02T13:06:51;1.73;;;1.63;;
7971;SDS011;4031;49.758;6.120;2023-04-02T13:09:27;2.37;;;2.17;;
7971;SDS011;4031;49.758;6.120;2023-04-02T13:11:58;1.33;;;1.23;;
7971;SDS011;4031;49.758;6.120;2023-04-02T13:14:25;1.83;;;1.73;;
7971;SDS011;4031;49.758;6.120;2023-04-02T13:16:51;2.10;;;1.63;;
7971;SDS011;4031;49.758;6.120;2023-04-02T13:21:50;1.37;;;1.10;;
7971;SDS011;4031;49.758;6.120;2023-04-02T13:26:52;1.57;;;1.47;;
7971;SDS011;4031;49.758;6.120;2023-04-02T13:29:22;1.27;;;1.17;;
7971;SDS011;4031;49.758;6.120;2023-04-02T13:31:59;1.47;;;1.37;;
7971;SDS011;4031;49.758;6.120;2023-04-02T13:34:30;2.00;;;1.80;;
7971;SDS011;4031;49.758;6.120;2023-04-02T13:36:56;1.73;;;1.63;;
7971;SDS011;4031;49.758;6.120;2023-04-02T13:39:24;2.43;;;2.23;;
7971;SDS011;4031;49.758;6.120;2023-04-02T13:41:51;1.90;;;1.80;;
7971;SDS011;4031;49.758;6.120;2023-04-02T13:44:29;1.93;;;1.83;;
7971;SDS011;4031;49.758;6.120;2023-04-02T13:46:57;0.63;;;0.63;;
7971;SDS011;4031;49.758;6.120;2023-04-02T13:49:23;1.67;;;1.57;;
7971;SDS011;4031;49.758;6.120;2023-04-02T13:51:50;1.83;;;1.73;;
7971;SDS011;4031;49.758;6.120;2023-04-02T13:54:20;0.90;;;0.90;;
7971;SDS011;4031;49.758;6.120;2023-04-02T13:56:55;1.37;;;1.27;;
7971;SDS011;4031;49.758;6.120;2023-04-02T13:59:22;2.40;;;2.20;;
7971;SDS011;4031;49.758;6.120;2023-04-02T14:01:48;3.07;;;2.50;;
7971;SDS011;4031;49.758;6.120;2023-04-02T14:04:19;3.33;;;3.03;;
7971;SDS011;4031;49.758;6.120;2023-04-02T14:19:31;2.20;;;2.00;;
7971;SDS011;4031;49.758;6.120;2023-04-02T14:28:10;3.30;;;2.80;;
7971;SDS011;4031;49.758;6.120;2023-04-02T14:33:36;3.13;;;2.93;;
7971;SDS011;4031;49.758;6.120;2023-04-02T14:36:14;4.60;;;3.50;;
7971;SDS011;4031;49.758;6.120;2023-04-02T14:41:33;2.70;;;2.50;;
7971;SDS011;4031;49.758;6.120;2023-04-02T14:44:12;5.20;;;4.67;;
7971;SDS011;4031;49.758;6.120;2023-04-02T14:46:39;3.27;;;2.87;;
7971;SDS011;4031;49.758;6.120;2023-04-02T14:49:11;6.53;;;5.60;;
7971;SDS011;4031;49.758;6.120;2023-04-02T14:51:52;5.30;;;4.80;;
7971;SDS011;4031;49.758;6.120;2023-04-02T14:54:30;4.83;;;4.37;;
7971;SDS011;4031;49.758;6.120;2023-04-02T15:02:49;4.53;;;2.37;;
7971;SDS011;4031;49.758;6.120;2023-04-02T15:08:04;6.57;;;5.77;;
7971;SDS011;4031;49.758;6.120;2023-04-02T15:11:01;4.67;;;4.23;;
7971;SDS011;4031;49.758;6.120;2023-04-02T15:13:48;7.47;;;5.50;;
7971;SDS011;4031;49.758;6.120;2023-04-02T15:16:36;6.50;;;5.80;;
7971;SDS011;4031;49.758;6.120;2023-04-02T15:19:02;7.10;;;5.40;;
7971;SDS011;4031;49.758;6.120;2023-04-02T15:27:54;5.80;;;4.10;;
7971;SDS011;4031;49.758;6.120;2023-04-02T15:30:36;5.67;;;5.07;;
7971;SDS011;4031;49.758;6.120;2023-04-02T15:45:36;6.30;;;5.70;;
7971;SDS011;4031;49.758;6.120;2023-04-02T15:54:18;7.13;;;6.43;;
7971;SDS011;4031;49.758;6.120;2023-04-02T15:57:19;6.37;;;5.77;;
7971;SDS011;4031;49.758;6.120;2023-04-02T16:12:14;5.20;;;4.70;;
7971;SDS011;4031;49.758;6.120;2023-04-02T16:14:45;7.43;;;6.60;;
7971;SDS011;4031;49.758;6.120;2023-04-02T16:17:27;5.90;;;4.30;;
7971;SDS011;4031;49.758;6.120;2023-04-02T16:20:34;5.80;;;3.97;;
7971;SDS011;4031;49.758;6.120;2023-04-02T16:22:59;5.97;;;5.37;;
7971;SDS011;4031;49.758;6.120;2023-04-02T16:25:40;7.10;;;6.23;;
7971;SDS011;4031;49.758;6.120;2023-04-02T16:31:09;6.93;;;4.83;;
7971;SDS011;4031;49.758;6.120;2023-04-02T16:36:24;6.93;;;6.33;;
7971;SDS011;4031;49.758;6.120;2023-04-02T16:39:20;9.10;;;7.50;;
7971;SDS011;4031;49.758;6.120;2023-04-02T16:42:12;9.40;;;6.97;;
7971;SDS011;4031;49.758;6.120;2023-04-02T16:45:21;8.40;;;6.87;;
7971;SDS011;4031;49.758;6.120;2023-04-02T16:53:49;7.70;;;6.70;;
7971;SDS011;4031;49.758;6.120;2023-04-02T17:10:28;8.73;;;6.50;;
7971;SDS011;4031;49.758;6.120;2023-04-02T17:18:45;7.40;;;5.30;;
7971;SDS011;4031;49.758;6.120;2023-04-02T17:21:21;8.97;;;7.87;;
7971;SDS011;4031;49.758;6.120;2023-04-02T17:26:38;10.03;;;7.63;;
7971;SDS011;4031;49.758;6.120;2023-04-02T17:29:08;6.30;;;3.97;;
7971;SDS011;4031;49.758;6.120;2023-04-02T17:31:43;7.40;;;6.30;;
7971;SDS011;4031;49.758;6.120;2023-04-02T17:34:11;9.30;;;8.27;;
7971;SDS011;4031;49.758;6.120;2023-04-02T17:39:21;9.53;;;8.50;;
7971;SDS011;4031;49.758;6.120;2023-04-02T17:52:27;9.93;;;8.03;;
7971;SDS011;4031;49.758;6.120;2023-04-02T17:55:27;14.70;;;7.60;;
7971;SDS011;4031;49.758;6.120;2023-04-02T18:09:45;6.20;;;5.10;;
7971;SDS011;4031;49.758;6.120;2023-04-02T18:15:33;11.03;;;8.03;;
7971;SDS011;4031;49.758;6.120;2023-04-02T18:18:24;14.70;;;5.90;;
7971;SDS011;4031;49.758;6.120;2023-04-02T18:29:37;9.47;;;8.47;;
7971;SDS011;4031;49.758;6.120;2023-04-02T18:47:43;11.73;;;8.70;;
7971;SDS011;4031;49.758;6.120;2023-04-02T18:50:17;10.00;;;7.03;;
7971;SDS011;4031;49.758;6.120;2023-04-02T18:53:00;11.27;;;7.87;;
7971;SDS011;4031;49.758;6.120;2023-04-02T18:55:38;9.67;;;6.93;;
7971;SDS011;4031;49.758;6.120;2023-04-02T18:58:16;5.50;;;5.00;;
7971;SDS011;4031;49.758;6.120;2023-04-02T19:00:50;9.93;;;8.50;;
7971;SDS011;4031;49.758;6.120;2023-04-02T19:08:40;10.50;;;6.90;;
7971;SDS011;4031;49.758;6.120;2023-04-02T19:11:16;6.20;;;5.60;;
7971;SDS011;4031;49.758;6.120;2023-04-02T19:13:52;7.87;;;6.10;;
7971;SDS011;4031;49.758;6.120;2023-04-02T19:22:13;10.30;;;7.00;;
7971;SDS011;4031;49.758;6.120;2023-04-02T19:36:54;6.83;;;5.43;;
7971;SDS011;4031;49.758;6.120;2023-04-02T19:39:35;7.80;;;5.50;;
7971;SDS011;4031;49.758;6.120;2023-04-02T19:45:03;7.37;;;5.87;;
7971;SDS011;4031;49.758;6.120;2023-04-02T19:47:44;6.90;;;6.20;;
7971;SDS011;4031;49.758;6.120;2023-04-02T19:50:10;7.57;;;6.80;;
7971;SDS011;4031;49.758;6.120;2023-04-02T19:52:35;4.67;;;4.20;;
7971;SDS011;4031;49.758;6.120;2023-04-02T19:55:01;6.83;;;6.20;;
7971;SDS011;4031;49.758;6.120;2023-04-02T19:57:28;6.43;;;4.83;;
7971;SDS011;4031;49.758;6.120;2023-04-02T19:59:53;5.53;;;4.93;;
7971;SDS011;4031;49.758;6.120;2023-04-02T20:02:19;5.83;;;5.20;;
7971;SDS011;4031;49.758;6.120;2023-04-02T20:04:45;1.80;;;1.70;;
7971;SDS011;4031;49.758;6.120;2023-04-02T20:07:10;6.07;;;5.27;;
7971;SDS011;4031;49.758;6.120;2023-04-02T20:09:36;5.27;;;4.83;;
7971;SDS011;4031;49.758;6.120;2023-04-02T20:12:02;5.43;;;4.97;;
7971;SDS011;4031;49.758;6.120;2023-04-02T20:14:28;5.73;;;4.90;;
7971;SDS011;4031;49.758;6.120;2023-04-02T20:16:53;4.50;;;4.10;;
7971;SDS011;4031;49.758;6.120;2023-04-02T20:19:19;5.27;;;4.77;;
7971;SDS011;4031;49.758;6.120;2023-04-02T20:21:45;2.90;;;2.60;;
7971;SDS011;4031;49.758;6.120;2023-04-02T20:24:11;3.67;;;3.37;;
7971;SDS011;4031;49.758;6.120;2023-04-02T20:26:36;3.07;;;2.87;;
7971;SDS011;4031;49.758;6.120;2023-04-02T20:29:02;3.60;;;3.27;;
7971;SDS011;4031;49.758;6.120;2023-04-02T20:31:28;2.10;;;2.00;;
7971;SDS011;4031;49.758;6.120;2023-04-02T20:33:57;2.80;;;2.40;;
7971;SDS011;4031;49.758;6.120;2023-04-02T20:36:23;2.70;;;2.47;;
7971;SDS011;4031;49.758;6.120;2023-04-02T20:38:49;3.17;;;2.57;;
7971;SDS011;4031;49.758;6.120;2023-04-02T20:41:16;2.83;;;2.60;;
7971;SDS011;4031;49.758;6.120;2023-04-02T20:43:43;1.83;;;1.73;;
7971;SDS011;4031;49.758;6.120;2023-04-02T20:46:09;1.93;;;1.83;;
7971;SDS011;4031;49.758;6.120;2023-04-02T20:48:36;2.07;;;1.97;;
7971;SDS011;4031;49.758;6.120;2023-04-02T20:51:03;1.77;;;1.67;;
7971;SDS011;4031;49.758;6.120;2023-04-02T20:53:31;2.13;;;1.70;;
7971;SDS011;4031;49.758;6.120;2023-04-02T20:56:12;2.67;;;2.30;;
7971;SDS011;4031;49.758;6.120;2023-04-02T20:58:40;2.57;;;2.30;;
7971;SDS011;4031;49.758;6.120;2023-04-02T21:01:07;2.77;;;2.40;;
7971;SDS011;4031;49.758;6.120;2023-04-02T21:03:32;3.77;;;2.73;;
7971;SDS011;4031;49.758;6.120;2023-04-02T21:05:58;3.37;;;2.20;;
7971;SDS011;4031;49.758;6.120;2023-04-02T21:08:24;1.77;;;1.67;;
7971;SDS011;4031;49.758;6.120;2023-04-02T21:10:50;3.80;;;2.77;;
7971;SDS011;4031;49.758;6.120;2023-04-02T21:13:16;4.10;;;2.10;;
7971;SDS011;4031;49.758;6.120;2023-04-02T21:15:41;2.53;;;2.10;;
7971;SDS011;4031;49.758;6.120;2023-04-02T21:18:07;2.10;;;1.40;;
7971;SDS011;4031;49.758;6.120;2023-04-02T21:20:33;2.20;;;2.00;;
7971;SDS011;4031;49.758;6.120;2023-04-02T21:22:59;1.77;;;1.67;;
7971;SDS011;4031;49.758;6.120;2023-04-02T21:25:24;3.13;;;2.20;;
7971;SDS011;4031;49.758;6.120;2023-04-02T21:27:50;2.30;;;2.10;;
7971;SDS011;4031;49.758;6.120;2023-04-02T21:30:16;2.47;;;2.27;;
7971;SDS011;4031;49.758;6.120;2023-04-02T21:32:42;1.87;;;1.77;;
7971;SDS011;4031;49.758;6.120;2023-04-02T21:35:08;1.90;;;1.63;;
7971;SDS011;4031;49.758;6.120;2023-04-02T21:37:33;1.73;;;1.63;;
7971;SDS011;4031;49.758;6.120;2023-04-02T21:39:59;1.40;;;1.30;;
7971;SDS011;4031;49.758;6.120;2023-04-02T21:42:25;2.60;;;1.83;;
7971;SDS011;4031;49.758;6.120;2023-04-02T21:44:51;2.63;;;1.83;;
7971;SDS011;4031;49.758;6.120;2023-04-02T21:47:17;2.10;;;1.53;;
7971;SDS011;4031;49.758;6.120;2023-04-02T21:49:43;2.03;;;1.83;;
7971;SDS011;4031;49.758;6.120;2023-04-02T21:52:09;1.10;;;1.00;;
7971;SDS011;4031;49.758;6.120;2023-04-02T21:54:35;2.37;;;1.90;;
7971;SDS011;4031;49.758;6.120;2023-04-02T21:57:01;2.13;;;1.93;;
7971;SDS011;4031;49.758;6.120;2023-04-02T21:59:27;1.57;;;1.47;;
7971;SDS011;4031;49.758;6.120;2023-04-02T22:01:52;1.93;;;1.83;;
7971;SDS011;4031;49.758;6.120;2023-04-02T22:04:22;2.43;;;2.23;;
7971;SDS011;4031;49.758;6.120;2023-04-02T22:06:50;3.47;;;2.80;;